Time,TemperatureF,DewpointF,PressureIn,WindDirection,WindDirectionDegrees,WindSpeedMPH,WindSpeedGustMPH,Humidity,HourlyPrecipIn,Conditions,Clouds,dailyrainin,SoftwareType,DateUTC
2013-08-29 00:00:00,75.9,73.1,29.88,ESE,112,0.0,1.0,91,0.00,,SCT031,0.00,VWS V14.01,2013-08-29 05:00:00,
2013-08-29 00:10:00,75.7,72.9,29.88,East,91,1.0,1.0,91,0.00,,SCT033,0.00,VWS V14.01,2013-08-29 05:10:00,
2013-08-29 00:20:00,75.5,72.7,29.88,ENE,71,0.0,2.1,91,0.00,,SCT033,0.00,VWS V14.01,2013-08-29 05:20:00,
2013-08-29 00:25:00,75.5,72.7,29.88,East,80,0.0,2.1,91,0.00,,CLR,0.00,VWS V14.01,2013-08-29 05:25:00,
2013-08-29 00:30:00,75.4,72.6,29.88,East,98,0.0,2.1,91,0.00,,CLR,0.00,VWS V14.01,2013-08-29 05:30:00,
2013-08-29 00:35:00,75.3,72.5,29.88,East,90,1.0,2.1,91,0.00,,CLR,0.00,VWS V14.01,2013-08-29 05:35:00,
2013-08-29 00:40:00,75.3,72.5,29.88,East,96,0.0,4.2,91,0.00,,CLR,0.00,VWS V14.01,2013-08-29 05:40:00,
2013-08-29 00:45:00,75.3,72.5,29.88,East,98,0.0,3.1,91,0.00,,CLR,0.00,VWS V14.01,2013-08-29 05:45:00,
2013-08-29 00:50:00,75.2,72.4,29.88,East,99,1.0,4.2,91,0.00,,CLR,0.00,VWS V14.01,2013-08-29 05:50:00,
2013-08-29 00:55:00,75.2,72.4,29.88,ESE,106,2.0,4.2,91,0.00,,CLR,0.00,VWS V14.01,2013-08-29 05:55:00,
2013-08-29 01:00:00,75.1,72.3,29.88,ESE,114,0.0,3.1,91,0.00,,CLR,0.00,VWS V14.01,2013-08-29 06:00:00,
2013-08-29 01:05:00,75.0,72.2,29.88,ESE,105,0.0,3.1,91,0.00,,CLR,0.00,VWS V14.01,2013-08-29 06:05:00,
2013-08-29 01:10:00,75.0,72.2,29.88,ESE,114,2.0,4.2,91,0.00,,CLR,0.00,VWS V14.01,2013-08-29 06:10:00,
2013-08-29 01:15:00,75.0,72.2,29.88,ESE,117,2.0,6.3,91,0.00,,CLR,0.00,VWS V14.01,2013-08-29 06:15:00,
2013-08-29 01:25:00,74.9,72.4,29.88,ESE,123,1.0,4.2,92,0.00,,CLR,0.00,VWS V14.01,2013-08-29 06:25:00,
2013-08-29 01:30:00,75.0,72.5,29.88,SE,128,2.0,4.2,92,0.00,,CLR,0.00,VWS V14.01,2013-08-29 06:30:00,
2013-08-29 01:35:00,75.1,72.6,29.88,SE,128,0.0,7.3,92,0.00,,CLR,0.00,VWS V14.01,2013-08-29 06:35:00,
2013-08-29 01:45:00,75.2,72.4,29.88,ESE,109,3.0,5.2,91,0.00,,CLR,0.00,VWS V14.01,2013-08-29 06:45:00,
2013-08-29 01:50:00,75.2,72.4,29.87,SE,134,3.0,5.2,91,0.00,,CLR,0.00,VWS V14.01,2013-08-29 06:50:00,
2013-08-29 02:00:00,75.2,72.4,29.87,SE,132,3.0,7.3,91,0.00,,CLR,0.00,VWS V14.01,2013-08-29 07:00:00,
2013-08-29 02:10:00,75.2,72.7,29.87,SE,141,2.0,4.2,92,0.00,,CLR,0.00,VWS V14.01,2013-08-29 07:10:00,
2013-08-29 02:15:00,75.1,72.6,29.87,SE,144,0.0,5.2,92,0.00,,CLR,0.00,VWS V14.01,2013-08-29 07:15:00,
2013-08-29 02:20:00,75.0,72.5,29.87,SE,140,1.0,5.2,92,0.00,,CLR,0.00,VWS V14.01,2013-08-29 07:20:00,
2013-08-29 02:30:00,74.8,72.0,29.86,SE,137,1.0,4.2,91,0.00,,CLR,0.00,VWS V14.01,2013-08-29 07:30:00,
2013-08-29 02:35:00,74.7,71.9,29.86,SE,138,0.0,3.1,91,0.00,,CLR,0.00,VWS V14.01,2013-08-29 07:35:00,
2013-08-29 02:40:00,74.7,71.9,29.86,SE,141,1.0,4.2,91,0.00,,CLR,0.00,VWS V14.01,2013-08-29 07:40:00,
2013-08-29 02:45:00,74.6,71.8,29.86,SSE,150,3.0,4.2,91,0.00,,CLR,0.00,VWS V14.01,2013-08-29 07:45:00,
2013-08-29 02:55:00,74.6,71.8,29.86,SSE,150,2.0,3.1,91,0.00,,CLR,0.00,VWS V14.01,2013-08-29 07:55:00,
2013-08-29 03:00:00,74.7,71.9,29.87,SSE,152,1.0,4.2,91,0.00,,CLR,0.00,VWS V14.01,2013-08-29 08:00:00,
2013-08-29 03:05:00,74.7,71.9,29.87,SSE,151,0.0,5.2,91,0.00,,CLR,0.00,VWS V14.01,2013-08-29 08:05:00,
2013-08-29 03:15:00,74.7,71.9,29.87,SSE,167,0.0,4.2,91,0.00,,CLR,0.00,VWS V14.01,2013-08-29 08:15:00,
2013-08-29 03:25:00,74.6,71.8,29.87,SE,138,2.0,5.2,91,0.00,,CLR,0.00,VWS V14.01,2013-08-29 08:25:00,
2013-08-29 03:35:00,74.4,71.9,29.87,SSE,147,0.0,4.2,92,0.00,,CLR,0.00,VWS V14.01,2013-08-29 08:35:00,
2013-08-29 03:40:00,74.3,71.8,29.87,SSE,148,0.0,3.1,92,0.00,,CLR,0.00,VWS V14.01,2013-08-29 08:40:00,
2013-08-29 03:45:00,74.3,71.8,29.86,SE,144,2.0,4.2,92,0.00,,CLR,0.00,VWS V14.01,2013-08-29 08:45:00,
2013-08-29 03:50:00,74.2,71.7,29.86,SE,133,0.0,2.1,92,0.00,,CLR,0.00,VWS V14.01,2013-08-29 08:50:00,
2013-08-29 03:55:00,74.2,71.7,29.86,SE,138,0.0,3.1,92,0.00,,CLR,0.00,VWS V14.01,2013-08-29 08:55:00,
2013-08-29 04:00:00,74.1,71.3,29.86,SE,144,0.0,3.1,91,0.00,,,0.00,VWS V14.01,2013-08-29 09:00:00,
2013-08-29 04:10:00,73.9,71.1,29.86,SSE,148,0.0,2.1,91,0.00,,,0.00,VWS V14.01,2013-08-29 09:10:00,
2013-08-29 04:15:00,74.0,71.2,29.86,SSE,161,1.0,5.2,91,0.00,,,0.00,VWS V14.01,2013-08-29 09:15:00,
2013-08-29 04:20:00,74.1,71.6,29.86,South,188,2.0,6.3,92,0.00,,CLR,0.00,VWS V14.01,2013-08-29 09:20:00,
2013-08-29 04:25:00,74.1,71.3,29.86,SSE,148,2.0,3.1,91,0.00,,CLR,0.00,VWS V14.01,2013-08-29 09:25:00,
2013-08-29 04:30:00,74.1,71.3,29.85,SSE,152,2.0,5.2,91,0.00,,CLR,0.00,VWS V14.01,2013-08-29 09:30:00,
2013-08-29 04:35:00,74.1,71.3,29.85,SSE,160,1.0,6.3,91,0.00,,CLR,0.00,VWS V14.01,2013-08-29 09:35:00,
2013-08-29 04:40:00,74.0,71.2,29.85,SSE,168,0.0,4.2,91,0.00,,CLR,0.00,VWS V14.01,2013-08-29 09:40:00,
2013-08-29 04:45:00,73.9,71.1,29.85,SE,146,1.0,4.2,91,0.00,,,0.00,VWS V14.01,2013-08-29 09:45:00,
2013-08-29 04:50:00,73.9,71.1,29.85,SSE,150,1.0,3.1,91,0.00,,,0.00,VWS V14.01,2013-08-29 09:50:00,
2013-08-29 04:55:00,73.8,71.0,29.85,SSE,149,3.0,4.2,91,0.00,,,0.00,VWS V14.01,2013-08-29 09:55:00,
2013-08-29 05:00:00,73.8,71.0,29.85,SSE,161,1.0,5.2,91,0.00,,,0.00,VWS V14.01,2013-08-29 10:00:00,
2013-08-29 05:10:00,73.6,70.8,29.85,SSE,160,1.0,4.2,91,0.00,,,0.00,VWS V14.01,2013-08-29 10:10:00,
2013-08-29 05:15:00,73.6,70.8,29.85,SSE,160,0.0,2.1,91,0.00,,,0.00,VWS V14.01,2013-08-29 10:15:00,
2013-08-29 05:20:00,73.6,70.8,29.84,South,190,2.0,4.2,91,0.00,,,0.00,VWS V14.01,2013-08-29 10:20:00,
2013-08-29 05:25:00,73.6,70.8,29.84,South,169,2.0,5.2,91,0.00,,,0.00,VWS V14.01,2013-08-29 10:25:00,
2013-08-29 05:30:00,73.6,70.8,29.84,SSE,160,2.0,4.2,91,0.00,,,0.00,VWS V14.01,2013-08-29 10:30:00,
2013-08-29 05:40:00,73.3,70.5,29.84,SSE,153,0.0,4.2,91,0.00,,,0.00,VWS V14.01,2013-08-29 10:40:00,
2013-08-29 05:45:00,73.3,70.5,29.85,SSE,159,0.0,2.1,91,0.00,,CLR,0.00,VWS V14.01,2013-08-29 10:45:00,
2013-08-29 05:55:00,73.0,70.2,29.85,SSE,157,0.0,3.1,91,0.00,,CLR,0.00,VWS V14.01,2013-08-29 10:55:00,
2013-08-29 06:00:00,72.9,70.1,29.85,SSE,157,1.0,2.1,91,0.00,,CLR,0.00,VWS V14.01,2013-08-29 11:00:00,
2013-08-29 06:05:00,72.7,69.9,29.85,SSE,157,1.0,3.1,91,0.00,,CLR,0.00,VWS V14.01,2013-08-29 11:05:00,
2013-08-29 06:10:00,72.7,69.9,29.86,SSE,157,0.0,2.1,91,0.00,,CLR,0.00,VWS V14.01,2013-08-29 11:10:00,
2013-08-29 06:15:00,72.6,69.8,29.86,SSE,157,0.0,1.0,91,0.00,,CLR,0.00,VWS V14.01,2013-08-29 11:15:00,
2013-08-29 06:20:00,72.4,69.6,29.86,SSE,157,0.0,1.0,91,0.00,,CLR,0.00,VWS V14.01,2013-08-29 11:20:00,
2013-08-29 06:30:00,72.2,69.4,29.86,SE,140,0.0,3.1,91,0.00,,,0.00,VWS V14.01,2013-08-29 11:30:00,
2013-08-29 06:35:00,72.1,69.0,29.87,SE,142,3.0,3.1,90,0.00,,,0.00,VWS V14.01,2013-08-29 11:35:00,
2013-08-29 06:40:00,72.1,69.0,29.87,SE,133,0.0,3.1,90,0.00,,,0.00,VWS V14.01,2013-08-29 11:40:00,
2013-08-29 06:45:00,72.1,69.0,29.88,SE,133,1.0,2.1,90,0.00,,,0.00,VWS V14.01,2013-08-29 11:45:00,
2013-08-29 06:55:00,71.7,68.6,29.88,SE,135,0.0,2.1,90,0.00,,,0.00,VWS V14.01,2013-08-29 11:55:00,
2013-08-29 07:00:00,71.6,68.5,29.87,SE,140,0.0,3.1,90,0.00,,,0.00,VWS V14.01,2013-08-29 12:00:00,
2013-08-29 07:05:00,71.6,68.5,29.87,SE,141,1.0,3.1,90,0.00,,,0.00,VWS V14.01,2013-08-29 12:05:00,
2013-08-29 07:10:00,71.7,68.6,29.88,SE,145,0.0,4.2,90,0.00,,,0.00,VWS V14.01,2013-08-29 12:10:00,
2013-08-29 07:20:00,72.0,68.9,29.88,SE,143,1.0,4.2,90,0.00,,,0.00,VWS V14.01,2013-08-29 12:20:00,
2013-08-29 07:25:00,72.1,69.0,29.88,SE,134,0.0,3.1,90,0.00,,,0.00,VWS V14.01,2013-08-29 12:25:00,
2013-08-29 07:30:00,72.2,69.1,29.88,SE,142,2.0,4.2,90,0.00,,,0.00,VWS V14.01,2013-08-29 12:30:00,
2013-08-29 07:35:00,72.5,69.4,29.87,SSE,167,0.0,4.2,90,0.00,,,0.00,VWS V14.01,2013-08-29 12:35:00,
2013-08-29 07:40:00,72.8,69.7,29.87,SSE,162,5.0,6.3,90,0.00,,CLR,0.00,VWS V14.01,2013-08-29 12:40:00,
2013-08-29 07:45:00,72.9,69.8,29.87,SSE,154,6.0,9.4,90,0.00,,CLR,0.00,VWS V14.01,2013-08-29 12:45:00,
2013-08-29 07:55:00,73.4,70.3,29.86,SSE,150,3.0,7.3,90,0.00,,CLR,0.00,VWS V14.01,2013-08-29 12:55:00,
2013-08-29 08:00:00,73.6,70.5,29.86,SE,141,3.0,9.4,90,0.00,,CLR,0.00,VWS V14.01,2013-08-29 13:00:00,
2013-08-29 08:05:00,73.9,70.8,29.86,ESE,119,5.0,8.4,90,0.00,,CLR,0.00,VWS V14.01,2013-08-29 13:05:00,
2013-08-29 08:10:00,74.2,71.1,29.86,SE,144,2.0,8.4,90,0.00,,CLR,0.00,VWS V14.01,2013-08-29 13:10:00,
2013-08-29 08:20:00,74.9,71.8,29.86,SSE,157,2.0,5.2,90,0.00,,CLR,0.00,VWS V14.01,2013-08-29 13:20:00,
2013-08-29 08:25:00,75.3,72.2,29.85,SSE,157,0.0,5.2,90,0.00,,CLR,0.00,VWS V14.01,2013-08-29 13:25:00,
2013-08-29 08:30:00,75.6,72.5,29.86,SSE,150,1.0,7.3,90,0.00,,CLR,0.00,VWS V14.01,2013-08-29 13:30:00,
2013-08-29 08:35:00,75.8,72.7,29.86,South,182,1.0,6.3,90,0.00,,CLR,0.00,VWS V14.01,2013-08-29 13:35:00,
2013-08-29 08:40:00,76.1,72.6,29.86,South,182,2.0,7.3,89,0.00,,CLR,0.00,VWS V14.01,2013-08-29 13:40:00,
2013-08-29 08:45:00,76.5,73.0,29.86,SSE,160,2.0,4.2,89,0.00,,CLR,0.00,VWS V14.01,2013-08-29 13:45:00,
2013-08-29 08:50:00,76.8,73.3,29.85,South,181,5.0,7.3,89,0.00,,CLR,0.00,VWS V14.01,2013-08-29 13:50:00,
2013-08-29 08:55:00,77.2,73.4,29.85,South,178,2.0,8.4,88,0.00,,CLR,0.00,VWS V14.01,2013-08-29 13:55:00,
2013-08-29 09:05:00,77.9,73.7,29.85,South,173,2.0,7.3,87,0.00,,CLR,0.00,VWS V14.01,2013-08-29 14:05:00,
2013-08-29 09:10:00,78.2,73.7,29.85,South,186,5.0,6.3,86,0.00,,CLR,0.00,VWS V14.01,2013-08-29 14:10:00,
2013-08-29 09:15:00,78.6,74.1,29.85,SSE,153,4.0,5.2,86,0.00,,CLR,0.00,VWS V14.01,2013-08-29 14:15:00,
2013-08-29 09:35:00,80.0,74.0,29.85,South,182,2.0,8.4,82,0.00,,CLR,0.00,VWS V14.01,2013-08-29 14:35:00,
2013-08-29 09:40:00,80.2,73.8,29.86,South,172,3.0,8.4,81,0.00,,CLR,0.00,VWS V14.01,2013-08-29 14:40:00,
2013-08-29 09:50:00,80.9,73.8,29.85,SSW,198,2.0,9.4,79,0.00,,CLR,0.00,VWS V14.01,2013-08-29 14:50:00,
2013-08-29 10:00:00,81.9,73.6,29.86,SSW,209,2.0,10.5,76,0.00,,CLR,0.00,VWS V14.01,2013-08-29 15:00:00,
2013-08-29 10:05:00,82.2,73.9,29.86,South,188,4.0,10.5,76,0.00,,CLR,0.00,VWS V14.01,2013-08-29 15:05:00,
2013-08-29 10:10:00,82.4,74.1,29.86,SSW,192,2.0,9.4,76,0.00,,CLR,0.00,VWS V14.01,2013-08-29 15:10:00,
2013-08-29 10:15:00,82.4,73.7,29.86,SSW,211,3.0,9.4,75,0.00,,CLR,0.00,VWS V14.01,2013-08-29 15:15:00,
2013-08-29 10:25:00,82.2,73.5,29.86,SSW,199,3.0,7.3,75,0.00,,CLR,0.00,VWS V14.01,2013-08-29 15:25:00,
2013-08-29 10:35:00,82.7,74.0,29.86,SSW,213,1.0,7.3,75,0.00,,CLR,0.00,VWS V14.01,2013-08-29 15:35:00,
2013-08-29 10:40:00,82.6,73.5,29.86,SW,222,4.0,8.4,74,0.00,,CLR,0.00,VWS V14.01,2013-08-29 15:40:00,
2013-08-29 10:50:00,82.3,73.6,29.86,SSW,204,3.0,6.3,75,0.00,,CLR,0.00,VWS V14.01,2013-08-29 15:50:00,
2013-08-29 10:55:00,82.2,73.1,29.86,SSW,200,4.0,7.3,74,0.00,,CLR,0.00,VWS V14.01,2013-08-29 15:55:00,
2013-08-29 11:00:00,82.1,73.0,29.86,SSW,196,2.0,8.4,74,0.00,,CLR,0.00,VWS V14.01,2013-08-29 16:00:00,
2013-08-29 11:05:00,82.1,73.4,29.86,SW,221,1.0,8.4,75,0.00,,CLR,0.00,VWS V14.01,2013-08-29 16:05:00,
2013-08-29 11:10:00,82.0,73.7,29.86,SSW,202,0.0,7.3,76,0.00,,CLR,0.00,VWS V14.01,2013-08-29 16:10:00,
2013-08-29 11:20:00,82.1,73.8,29.86,South,185,0.0,6.3,76,0.00,,CLR,0.00,VWS V14.01,2013-08-29 16:20:00,
2013-08-29 11:30:00,82.3,74.0,29.86,South,185,3.0,6.3,76,0.00,,CLR,0.00,VWS V14.01,2013-08-29 16:30:00,
2013-08-29 11:35:00,82.4,74.5,29.86,SSE,155,2.0,5.2,77,0.00,,CLR,0.00,VWS V14.01,2013-08-29 16:35:00,
2013-08-29 11:40:00,82.4,74.1,29.86,SW,217,0.0,6.3,76,0.00,,CLR,0.00,VWS V14.01,2013-08-29 16:40:00,
2013-08-29 11:45:00,82.7,74.8,29.86,SSW,200,0.0,5.2,77,0.00,,CLR,0.00,VWS V14.01,2013-08-29 16:45:00,
2013-08-29 11:50:00,83.0,74.7,29.86,SSW,207,0.0,6.3,76,0.00,,CLR,0.00,VWS V14.01,2013-08-29 16:50:00,
2013-08-29 11:55:00,83.3,75.3,29.86,SSW,198,0.0,2.1,77,0.00,,CLR,0.00,VWS V14.01,2013-08-29 16:55:00,
2013-08-29 12:00:00,83.6,74.4,29.86,WSW,242,0.0,4.2,74,0.00,,CLR,0.00,VWS V14.01,2013-08-29 17:00:00,
2013-08-29 12:05:00,84.0,74.8,29.86,SSW,211,0.0,5.2,74,0.00,,CLR,0.00,VWS V14.01,2013-08-29 17:05:00,
2013-08-29 12:10:00,84.6,75.0,29.85,SW,223,0.0,1.0,73,0.00,,CLR,0.00,VWS V14.01,2013-08-29 17:10:00,
2013-08-29 12:15:00,85.1,75.1,29.85,SW,227,0.0,0.0,72,0.00,,CLR,0.00,VWS V14.01,2013-08-29 17:15:00,
2013-08-29 12:20:00,85.7,75.6,29.85,SSW,198,0.0,2.1,72,0.00,,CLR,0.00,VWS V14.01,2013-08-29 17:20:00,
2013-08-29 12:25:00,86.6,76.1,29.85,SSW,211,0.0,4.2,71,0.00,,CLR,0.00,VWS V14.01,2013-08-29 17:25:00,
2013-08-29 12:30:00,87.2,76.2,29.84,SSW,194,2.0,4.2,70,0.00,,CLR,0.00,VWS V14.01,2013-08-29 17:30:00,
2013-08-29 12:35:00,87.5,75.6,29.84,SSE,157,0.0,5.2,68,0.00,,CLR,0.00,VWS V14.01,2013-08-29 17:35:00,
2013-08-29 12:40:00,87.8,75.5,29.84,SSW,199,2.0,6.3,67,0.00,,CLR,0.00,VWS V14.01,2013-08-29 17:40:00,
2013-08-29 12:45:00,88.1,75.3,29.84,SSW,198,1.0,6.3,66,0.00,,CLR,0.00,VWS V14.01,2013-08-29 17:45:00,
2013-08-29 12:50:00,88.4,73.7,29.84,SSW,200,3.0,10.5,62,0.00,,CLR,0.00,VWS V14.01,2013-08-29 17:50:00,
2013-08-29 12:55:00,88.6,72.9,29.83,SSW,202,7.0,11.5,60,0.00,,CLR,0.00,VWS V14.01,2013-08-29 17:55:00,
2013-08-29 13:00:00,88.8,72.6,29.83,SSW,198,7.0,13.6,59,0.00,,CLR,0.00,VWS V14.01,2013-08-29 18:00:00,
2013-08-29 13:10:00,89.6,72.4,29.82,SSW,207,9.0,12.6,57,0.00,,CLR,0.00,VWS V14.01,2013-08-29 18:10:00,
2013-08-29 13:15:00,89.1,71.9,29.82,South,190,6.0,11.5,57,0.00,,CLR,0.00,VWS V14.01,2013-08-29 18:15:00,
2013-08-29 13:25:00,87.8,72.2,29.81,SSW,196,0.0,9.4,60,0.00,,CLR,0.00,VWS V14.01,2013-08-29 18:25:00,
2013-08-29 13:35:00,87.2,72.1,29.81,South,174,5.0,12.6,61,0.00,,CLR,0.00,VWS V14.01,2013-08-29 18:35:00,
2013-08-29 13:40:00,87.1,73.0,29.81,South,190,0.0,6.3,63,0.00,,CLR,0.00,VWS V14.01,2013-08-29 18:40:00,
2013-08-29 13:50:00,87.4,71.8,29.80,South,191,5.0,8.4,60,0.00,,CLR,0.00,VWS V14.01,2013-08-29 18:50:00,
2013-08-29 13:55:00,87.6,72.0,29.80,SSW,211,5.0,9.4,60,0.00,,CLR,0.00,VWS V14.01,2013-08-29 18:55:00,
2013-08-29 14:00:00,87.8,73.6,29.80,SSW,211,3.0,7.3,63,0.00,,CLR,0.00,VWS V14.01,2013-08-29 19:00:00,
2013-08-29 14:05:00,87.8,72.7,29.80,SSW,193,7.0,10.5,61,0.00,,CLR,0.00,VWS V14.01,2013-08-29 19:05:00,
2013-08-29 14:10:00,87.7,71.1,29.79,South,172,3.0,12.6,58,0.00,,CLR,0.00,VWS V14.01,2013-08-29 19:10:00,
2013-08-29 14:15:00,87.6,71.0,29.79,SE,146,8.0,10.5,58,0.00,,CLR,0.00,VWS V14.01,2013-08-29 19:15:00,
2013-08-29 14:25:00,87.3,71.7,29.79,South,180,1.0,8.4,60,0.00,,CLR,0.00,VWS V14.01,2013-08-29 19:25:00,
2013-08-29 14:30:00,87.3,71.7,29.78,South,184,4.0,13.6,60,0.00,,CLR,0.00,VWS V14.01,2013-08-29 19:30:00,
2013-08-29 14:40:00,87.2,70.6,29.78,SSE,163,13.0,13.6,58,0.00,,CLR,0.00,VWS V14.01,2013-08-29 19:40:00,
2013-08-29 14:50:00,87.3,70.2,29.78,SSE,163,5.0,11.5,57,0.00,,CLR,0.00,VWS V14.01,2013-08-29 19:50:00,
2013-08-29 15:00:00,87.2,71.1,29.77,SSW,192,3.0,11.5,59,0.00,,CLR,0.00,VWS V14.01,2013-08-29 20:00:00,
2013-08-29 15:10:00,87.2,70.6,29.78,South,184,7.0,14.7,58,0.00,,CLR,0.00,VWS V14.01,2013-08-29 20:10:00,
2013-08-29 15:15:00,87.1,70.5,29.78,South,177,6.0,13.6,58,0.00,,CLR,0.00,VWS V14.01,2013-08-29 20:15:00,
2013-08-29 15:20:00,87.0,70.9,29.79,WSW,246,5.0,11.5,59,0.00,,CLR,0.00,VWS V14.01,2013-08-29 20:20:00,
2013-08-29 15:25:00,86.9,71.8,29.79,SW,221,2.0,9.4,61,0.00,,CLR,0.00,VWS V14.01,2013-08-29 20:25:00,
2013-08-29 15:30:00,87.2,72.6,29.79,SSW,205,0.0,9.4,62,0.00,,CLR,0.00,VWS V14.01,2013-08-29 20:30:00,
2013-08-29 15:40:00,88.1,72.5,29.78,SSW,194,3.0,11.5,60,0.00,,CLR,0.00,VWS V14.01,2013-08-29 20:40:00,
2013-08-29 15:50:00,87.8,71.7,29.78,SSW,200,8.0,12.6,59,0.00,,CLR,0.00,VWS V14.01,2013-08-29 20:50:00,
2013-08-29 15:55:00,87.9,71.3,29.77,SE,128,8.0,16.8,58,0.00,,CLR,0.00,VWS V14.01,2013-08-29 20:55:00,
2013-08-29 16:00:00,88.3,71.7,29.77,SSW,196,5.0,13.6,58,0.00,,CLR,0.00,VWS V14.01,2013-08-29 21:00:00,
2013-08-29 16:10:00,88.2,70.5,29.77,SSW,206,5.0,15.7,56,0.00,,CLR,0.00,VWS V14.01,2013-08-29 21:10:00,
2013-08-29 16:20:00,87.5,70.4,29.77,SSW,212,4.0,14.7,57,0.00,,CLR,0.00,VWS V14.01,2013-08-29 21:20:00,
2013-08-29 16:25:00,87.3,69.7,29.77,SSW,196,1.0,12.6,56,0.00,,CLR,0.00,VWS V14.01,2013-08-29 21:25:00,
2013-08-29 16:35:00,87.0,70.4,29.77,South,172,9.0,11.5,58,0.00,,CLR,0.00,VWS V14.01,2013-08-29 21:35:00,
2013-08-29 16:40:00,86.9,70.9,29.77,SSE,167,4.0,10.5,59,0.00,,CLR,0.00,VWS V14.01,2013-08-29 21:40:00,
2013-08-29 16:50:00,86.8,70.8,29.77,SSW,202,7.0,11.5,59,0.00,,CLR,0.00,VWS V14.01,2013-08-29 21:50:00,
2013-08-29 16:55:00,86.9,71.8,29.77,SSW,202,0.0,10.5,61,0.00,,CLR,0.00,VWS V14.01,2013-08-29 21:55:00,
2013-08-29 17:00:00,87.0,71.9,29.77,SSW,207,4.0,8.4,61,0.00,,CLR,0.00,VWS V14.01,2013-08-29 22:00:00,
2013-08-29 17:10:00,87.3,72.2,29.78,SSW,201,0.0,11.5,61,0.00,,CLR,0.00,VWS V14.01,2013-08-29 22:10:00,
2013-08-29 17:20:00,88.0,73.4,29.78,SSW,195,8.0,9.4,62,0.00,,CLR,0.00,VWS V14.01,2013-08-29 22:20:00,
2013-08-29 17:25:00,88.3,72.7,29.78,South,173,6.0,10.5,60,0.00,,CLR,0.00,VWS V14.01,2013-08-29 22:25:00,
2013-08-29 17:30:00,88.3,73.2,29.77,South,190,2.0,9.4,61,0.00,,CLR,0.00,VWS V14.01,2013-08-29 22:30:00,
2013-08-29 17:35:00,88.7,73.0,29.77,South,191,4.0,13.6,60,0.00,,CLR,0.00,VWS V14.01,2013-08-29 22:35:00,
2013-08-29 17:45:00,89.2,73.0,29.77,SSE,163,0.0,11.5,59,0.00,,CLR,0.00,VWS V14.01,2013-08-29 22:45:00,
2013-08-29 17:50:00,89.1,72.4,29.77,South,181,4.0,10.5,58,0.00,,CLR,0.00,VWS V14.01,2013-08-29 22:50:00,
2013-08-29 17:55:00,89.0,72.8,29.77,SSW,194,6.0,10.5,59,0.00,,CLR,0.00,VWS V14.01,2013-08-29 22:55:00,
2013-08-29 18:05:00,88.6,71.9,29.77,SSW,200,3.0,13.6,58,0.00,,CLR,0.00,VWS V14.01,2013-08-29 23:05:00,
2013-08-29 18:15:00,88.3,72.7,29.77,South,177,0.0,12.6,60,0.00,,CLR,0.00,VWS V14.01,2013-08-29 23:15:00,
2013-08-29 18:20:00,88.2,72.6,29.76,SSW,195,3.0,7.3,60,0.00,,CLR,0.00,VWS V14.01,2013-08-29 23:20:00,
2013-08-29 18:25:00,88.1,72.5,29.76,South,175,8.0,12.6,60,0.00,,CLR,0.00,VWS V14.01,2013-08-29 23:25:00,
2013-08-29 18:30:00,87.9,72.8,29.76,South,180,8.0,8.4,61,0.00,,CLR,0.00,VWS V14.01,2013-08-29 23:30:00,
2013-08-29 18:40:00,87.6,72.5,29.76,SSE,167,4.0,11.5,61,0.00,,CLR,0.00,VWS V14.01,2013-08-29 23:40:00,
2013-08-29 18:45:00,87.4,72.8,29.76,SSW,192,2.0,8.4,62,0.00,,CLR,0.00,VWS V14.01,2013-08-29 23:45:00,
2013-08-29 18:50:00,87.2,72.6,29.76,South,186,4.0,8.4,62,0.00,,CLR,0.00,VWS V14.01,2013-08-29 23:50:00,
2013-08-29 18:55:00,87.0,72.4,29.76,South,186,0.0,7.3,62,0.00,,CLR,0.00,VWS V14.01,2013-08-29 23:55:00,
2013-08-29 19:05:00,86.5,72.4,29.76,South,184,3.0,6.3,63,0.00,,CLR,0.00,VWS V14.01,2013-08-30 00:05:00,
2013-08-29 19:10:00,86.3,72.7,29.75,South,176,0.0,6.3,64,0.00,,CLR,0.00,VWS V14.01,2013-08-30 00:10:00,
2013-08-29 19:15:00,86.0,72.9,29.76,South,184,0.0,7.3,65,0.00,,CLR,0.00,VWS V14.01,2013-08-30 00:15:00,
2013-08-29 19:25:00,85.2,72.6,29.75,South,187,0.0,3.1,66,0.00,,CLR,0.00,VWS V14.01,2013-08-30 00:25:00,
2013-08-29 19:30:00,84.8,72.2,29.75,South,171,0.0,6.3,66,0.00,,CLR,0.00,VWS V14.01,2013-08-30 00:30:00,
2013-08-29 19:40:00,84.1,72.0,29.75,South,180,0.0,4.2,67,0.00,,CLR,0.00,VWS V14.01,2013-08-30 00:40:00,
2013-08-29 19:45:00,83.7,72.0,29.75,South,173,0.0,4.2,68,0.00,,CLR,0.00,VWS V14.01,2013-08-30 00:45:00,
2013-08-29 19:50:00,83.3,72.1,29.75,SSW,211,0.0,1.0,69,0.00,,CLR,0.00,VWS V14.01,2013-08-30 00:50:00,
2013-08-29 19:55:00,82.8,72.0,29.75,South,188,0.0,3.1,70,0.00,,CLR,0.00,VWS V14.01,2013-08-30 00:55:00,
2013-08-29 20:00:00,82.4,71.6,29.75,South,189,0.0,1.0,70,0.00,,CLR,0.00,VWS V14.01,2013-08-30 01:00:00,
2013-08-29 20:05:00,82.0,71.7,29.75,South,178,0.0,3.1,71,0.00,,CLR,0.00,VWS V14.01,2013-08-30 01:05:00,
2013-08-29 20:10:00,81.6,71.7,29.75,SSE,166,0.0,0.0,72,0.00,,CLR,0.00,VWS V14.01,2013-08-30 01:10:00,
2013-08-29 20:15:00,81.3,71.4,29.75,SSE,159,0.0,0.0,72,0.00,,CLR,0.00,VWS V14.01,2013-08-30 01:15:00,
2013-08-29 20:25:00,80.7,71.7,29.75,South,175,0.0,0.0,74,0.00,,CLR,0.00,VWS V14.01,2013-08-30 01:25:00,
2013-08-29 20:35:00,80.1,71.5,29.75,South,175,0.0,1.0,75,0.00,,CLR,0.00,VWS V14.01,2013-08-30 01:35:00,
2013-08-29 20:40:00,79.9,71.3,29.75,South,173,0.0,0.0,75,0.00,,CLR,0.00,VWS V14.01,2013-08-30 01:40:00,
2013-08-29 20:45:00,79.7,71.5,29.75,South,182,0.0,1.0,76,0.00,,CLR,0.00,VWS V14.01,2013-08-30 01:45:00,
2013-08-29 20:55:00,79.5,71.7,29.75,South,176,0.0,0.0,77,0.00,,CLR,0.00,VWS V14.01,2013-08-30 01:55:00,
2013-08-29 21:00:00,79.4,71.6,29.75,South,186,0.0,4.2,77,0.00,,CLR,0.00,VWS V14.01,2013-08-30 02:00:00,
2013-08-29 21:10:00,79.7,71.9,29.75,SSW,193,0.0,5.2,77,0.00,,CLR,0.00,VWS V14.01,2013-08-30 02:10:00,
2013-08-29 21:15:00,79.8,71.9,29.75,South,186,4.0,5.2,77,0.00,,CLR,0.00,VWS V14.01,2013-08-30 02:15:00,
2013-08-29 21:20:00,79.7,71.9,29.75,SSW,198,3.0,6.3,77,0.00,,CLR,0.00,VWS V14.01,2013-08-30 02:20:00,
2013-08-29 21:25:00,79.4,71.9,29.75,SSW,195,4.0,7.3,78,0.00,,CLR,0.00,VWS V14.01,2013-08-30 02:25:00,
2013-08-29 21:35:00,78.9,71.8,29.75,South,189,5.0,6.3,79,0.00,,CLR,0.00,VWS V14.01,2013-08-30 02:35:00,
2013-08-29 21:40:00,78.8,71.7,29.75,SSW,207,3.0,7.3,79,0.00,,CLR,0.00,VWS V14.01,2013-08-30 02:40:00,
2013-08-29 21:45:00,78.6,71.9,29.75,SSW,207,3.0,4.2,80,0.00,,CLR,0.00,VWS V14.01,2013-08-30 02:45:00,
2013-08-29 21:50:00,78.5,72.2,29.75,SSW,207,0.0,4.2,81,0.00,,CLR,0.00,VWS V14.01,2013-08-30 02:50:00,
2013-08-29 21:55:00,78.4,72.1,29.75,SSW,199,1.0,5.2,81,0.00,,CLR,0.00,VWS V14.01,2013-08-30 02:55:00,
2013-08-29 22:00:00,78.4,72.1,29.75,SSW,192,5.0,5.2,81,0.00,,CLR,0.00,VWS V14.01,2013-08-30 03:00:00,
2013-08-29 22:05:00,78.3,72.4,29.75,South,178,0.0,5.2,82,0.00,,CLR,0.00,VWS V14.01,2013-08-30 03:05:00,
2013-08-29 22:10:00,78.3,72.4,29.75,SSW,196,3.0,4.2,82,0.00,,CLR,0.00,VWS V14.01,2013-08-30 03:10:00,
2013-08-29 22:20:00,78.2,72.3,29.75,SSW,205,0.0,5.2,82,0.00,,CLR,0.00,VWS V14.01,2013-08-30 03:20:00,
2013-08-29 22:30:00,78.0,72.4,29.75,SW,218,0.0,0.0,83,0.00,,CLR,0.00,VWS V14.01,2013-08-30 03:30:00,
2013-08-29 22:35:00,77.8,72.2,29.75,SSW,202,3.0,5.2,83,0.00,,CLR,0.00,VWS V14.01,2013-08-30 03:35:00,
2013-08-29 22:40:00,77.6,72.4,29.75,SSW,213,0.0,3.1,84,0.00,,CLR,0.00,VWS V14.01,2013-08-30 03:40:00,
2013-08-29 22:45:00,77.5,72.3,29.76,SSW,211,0.0,3.1,84,0.00,,CLR,0.00,VWS V14.01,2013-08-30 03:45:00,
2013-08-29 22:50:00,77.5,72.3,29.76,SW,214,4.0,5.2,84,0.00,,CLR,0.00,VWS V14.01,2013-08-30 03:50:00,
2013-08-29 22:55:00,77.4,72.2,29.76,SSW,201,2.0,4.2,84,0.00,,CLR,0.00,VWS V14.01,2013-08-30 03:55:00,
2013-08-29 23:00:00,77.2,72.3,29.76,SSW,201,1.0,4.2,85,0.00,,CLR,0.00,VWS V14.01,2013-08-30 04:00:00,
2013-08-29 23:05:00,77.1,72.2,29.76,SSW,211,0.0,5.2,85,0.00,,CLR,0.00,VWS V14.01,2013-08-30 04:05:00,
2013-08-29 23:10:00,77.1,72.2,29.75,SSW,212,2.0,5.2,85,0.00,,CLR,0.00,VWS V14.01,2013-08-30 04:10:00,
2013-08-29 23:20:00,77.0,72.5,29.76,SW,229,0.0,5.2,86,0.00,,SCT060,0.00,VWS V14.01,2013-08-30 04:20:00,
2013-08-29 23:25:00,77.2,72.7,29.76,WSW,253,0.0,8.4,86,0.00,,SCT060,0.00,VWS V14.01,2013-08-30 04:25:00,
2013-08-29 23:30:00,77.5,73.0,29.76,WSW,240,4.0,7.3,86,0.00,,SCT060,0.00,VWS V14.01,2013-08-30 04:30:00,
2013-08-29 23:50:00,76.9,72.7,29.76,WSW,249,0.0,2.1,87,0.00,,SCT060,0.00,VWS V14.01,2013-08-30 04:50:00,
2013-08-29 23:55:00,76.9,72.7,29.76,West,268,0.0,0.0,87,0.00,,SCT060,0.00,VWS V14.01,2013-08-30 04:55:00,